Time;durP1;ratioP1;P1;durP2;ratioP2;P2;SDS_P1;SDS_P2;PMS_P1;PMS_P2;Temp;Humidity;BMP_temperature;BMP_pressure;BME280_temperature;BME280_humidity;BME280_pressure;Samples;Min_cycle;Max_cycle;Signal;HPM_P1;HPM_P2
2024/01/26 00:01:08;;;;;;;28.33;18.50;;;;;;;;;;5079220;28;20197;-74
2024/01/26 00:03:34;;;;;;;31.47;21.67;;;;;;;;;;5078119;28;20655;-75
2024/01/26 00:06:00;;;;;;;34.30;22.60;;;;;;;;;;5070526;28;20200;-75
2024/01/26 00:08:26;;;;;;;27.97;19.20;;;;;;;;;;5073296;28;20261;-74
2024/01/26 00:10:53;;;;;;;29.10;21.30;;;;;;;;;;5069814;28;21091;-73
2024/01/26 00:13:19;;;;;;;28.07;18.90;;;;;;;;;;5015927;28;20181;-76
2024/01/26 00:15:47;;;;;;;23.23;17.07;;;;;;;;;;5069185;28;20205;-76
2024/01/26 00:18:15;;;;;;;20.80;15.53;;;;;;;;;;5004170;28;20251;-75
2024/01/26 00:20:42;;;;;;;31.03;19.53;;;;;;;;;;5053772;28;20242;-75
2024/01/26 00:23:10;;;;;;;26.70;18.33;;;;;;;;;;5077659;28;20237;-75
2024/01/26 00:25:39;;;;;;;36.10;22.07;;;;;;;;;;5086175;28;20212;-76
2024/01/26 00:28:05;;;;;;;28.57;18.57;;;;;;;;;;5082896;28;20733;-75
2024/01/26 00:30:33;;;;;;;27.87;19.27;;;;;;;;;;5064759;28;20288;-75
2024/01/26 00:32:59;;;;;;;25.57;17.50;;;;;;;;;;5069021;28;20764;-75
2024/01/26 00:35:26;;;;;;;25.10;17.53;;;;;;;;;;5071672;28;20197;-75
2024/01/26 00:37:52;;;;;;;25.60;16.77;;;;;;;;;;5079855;28;20192;-77
2024/01/26 00:40:18;;;;;;;22.87;15.57;;;;;;;;;;5079611;28;20177;-77
2024/01/26 00:42:45;;;;;;;22.87;16.60;;;;;;;;;;5081363;28;20310;-76
2024/01/26 00:45:11;;;;;;;29.47;18.47;;;;;;;;;;5069661;28;20261;-76
2024/01/26 00:47:37;;;;;;;25.27;16.80;;;;;;;;;;5070199;28;20178;-75
2024/01/26 00:50:04;;;;;;;20.83;14.90;;;;;;;;;;5068000;28;20192;-80
2024/01/26 00:52:30;;;;;;;18.27;13.07;;;;;;;;;;4984087;28;20203;-75
2024/01/26 00:54:57;;;;;;;18.17;12.97;;;;;;;;;;5075750;28;20284;-75
2024/01/26 00:57:23;;;;;;;21.13;14.93;;;;;;;;;;5059166;28;20204;-75
2024/01/26 00:59:49;;;;;;;26.47;16.53;;;;;;;;;;5052230;28;20231;-75
2024/01/26 01:02:16;;;;;;;25.57;16.20;;;;;;;;;;5077500;28;20177;-75
2024/01/26 01:04:42;;;;;;;24.97;16.93;;;;;;;;;;5072961;28;20272;-75
2024/01/26 01:07:08;;;;;;;27.60;17.33;;;;;;;;;;5077026;28;20173;-79
2024/01/26 01:09:34;;;;;;;21.90;15.30;;;;;;;;;;5075727;28;20185;-76
2024/01/26 01:12:01;;;;;;;26.00;16.37;;;;;;;;;;5082495;28;20660;-75
2024/01/26 01:14:28;;;;;;;23.10;15.70;;;;;;;;;;5079160;28;20179;-74
2024/01/26 01:16:56;;;;;;;28.57;17.97;;;;;;;;;;5080629;28;20212;-75
2024/01/26 01:19:22;;;;;;;27.57;17.80;;;;;;;;;;5063197;28;20192;-76
2024/01/26 01:21:48;;;;;;;24.50;17.00;;;;;;;;;;5067386;28;20181;-78
2024/01/26 01:24:14;;;;;;;31.83;18.67;;;;;;;;;;4982785;28;20181;-77
2024/01/26 01:26:41;;;;;;;24.10;16.17;;;;;;;;;;5074059;28;20724;-77
2024/01/26 01:29:07;;;;;;;21.07;14.60;;;;;;;;;;5070129;28;20189;-77
2024/01/26 01:31:33;;;;;;;26.20;17.23;;;;;;;;;;5067825;28;20196;-77
2024/01/26 01:34:00;;;;;;;29.50;18.80;;;;;;;;;;5068482;28;20650;-78
2024/01/26 01:36:26;;;;;;;29.30;18.73;;;;;;;;;;5073608;28;20287;-77
2024/01/26 01:38:52;;;;;;;24.40;16.87;;;;;;;;;;5074816;28;20184;-78
2024/01/26 01:41:18;;;;;;;23.50;16.67;;;;;;;;;;5065588;28;20188;-76
2024/01/26 01:43:53;;;;;;;23.60;16.67;;;;;;;;;;5051965;28;20237;-76
2024/01/26 01:46:19;;;;;;;25.77;17.00;;;;;;;;;;5064290;28;20207;-77
2024/01/26 01:48:45;;;;;;;28.57;18.83;;;;;;;;;;5084500;28;20204;-77
2024/01/26 01:51:13;;;;;;;24.13;17.13;;;;;;;;;;5074820;28;20326;-76
2024/01/26 01:53:39;;;;;;;23.33;16.43;;;;;;;;;;5077003;28;20747;-76
2024/01/26 01:56:06;;;;;;;29.13;18.57;;;;;;;;;;5051484;28;20200;-73
2024/01/26 01:58:33;;;;;;;25.00;17.83;;;;;;;;;;5073136;28;20183;-77
2024/01/26 02:00:59;;;;;;;22.03;16.27;;;;;;;;;;5077938;28;20192;-77
2024/01/26 02:03:26;;;;;;;24.53;16.73;;;;;;;;;;5075024;28;20204;-76
2024/01/26 02:05:52;;;;;;;22.63;17.13;;;;;;;;;;5069017;28;20217;-77
2024/01/26 02:08:18;;;;;;;20.17;15.20;;;;;;;;;;5061029;28;20200;-76
2024/01/26 02:10:44;;;;;;;37.00;23.13;;;;;;;;;;5084282;28;20185;-77
2024/01/26 02:13:11;;;;;;;24.90;17.30;;;;;;;;;;5072790;28;20169;-77
2024/01/26 02:15:37;;;;;;;22.20;16.13;;;;;;;;;;5056586;28;20754;-77
2024/01/26 02:18:10;;;;;;;19.10;14.87;;;;;;;;;;5081036;28;20216;-76
2024/01/26 02:20:37;;;;;;;22.00;15.27;;;;;;;;;;5077385;28;20180;-77
2024/01/26 02:23:03;;;;;;;25.83;16.03;;;;;;;;;;5074448;28;20263;-76
2024/01/26 02:25:29;;;;;;;23.50;16.53;;;;;;;;;;5072080;28;20765;-77
2024/01/26 02:27:55;;;;;;;21.97;16.40;;;;;;;;;;5038396;28;20193;-77
2024/01/26 02:30:21;;;;;;;21.40;15.97;;;;;;;;;;5074822;28;20168;-77
2024/01/26 02:32:48;;;;;;;21.03;16.27;;;;;;;;;;5080823;28;20183;-75
2024/01/26 02:35:14;;;;;;;27.73;17.67;;;;;;;;;;5076419;28;20671;-77
2024/01/26 02:37:40;;;;;;;23.00;16.40;;;;;;;;;;5080388;28;20184;-77
2024/01/26 02:40:07;;;;;;;24.07;17.13;;;;;;;;;;5083095;28;20199;-77
2024/01/26 02:42:33;;;;;;;20.13;14.97;;;;;;;;;;5079141;28;20628;-76
2024/01/26 02:44:59;;;;;;;22.47;16.00;;;;;;;;;;5069983;28;20197;-77
2024/01/26 02:47:25;;;;;;;22.93;15.77;;;;;;;;;;5074812;28;20257;-76
2024/01/26 02:49:52;;;;;;;19.37;15.23;;;;;;;;;;5070960;28;20713;-77
2024/01/26 02:52:18;;;;;;;22.17;14.90;;;;;;;;;;5077833;28;20231;-76
2024/01/26 02:54:44;;;;;;;19.77;13.87;;;;;;;;;;5076819;28;20193;-77
2024/01/26 02:57:10;;;;;;;16.97;12.90;;;;;;;;;;5082500;28;20180;-77
2024/01/26 02:59:36;;;;;;;17.93;13.53;;;;;;;;;;5055345;28;20846;-77
2024/01/26 03:02:02;;;;;;;18.77;13.43;;;;;;;;;;5078332;28;20234;-77
2024/01/26 03:04:28;;;;;;;14.90;12.07;;;;;;;;;;5071114;28;20667;-77
2024/01/26 03:06:55;;;;;;;16.13;12.33;;;;;;;;;;5081255;28;20215;-77
2024/01/26 03:09:22;;;;;;;15.47;12.17;;;;;;;;;;5079159;28;20181;-77
2024/01/26 03:11:48;;;;;;;14.47;11.87;;;;;;;;;;5077320;28;20189;-77
2024/01/26 03:14:15;;;;;;;13.80;10.97;;;;;;;;;;5078495;28;20191;-77
2024/01/26 03:16:41;;;;;;;11.33;9.93;;;;;;;;;;5079122;28;20212;-76
2024/01/26 03:19:08;;;;;;;12.87;10.30;;;;;;;;;;5075093;28;20280;-77
2024/01/26 03:21:34;;;;;;;12.53;9.90;;;;;;;;;;5083881;28;20299;-77
2024/01/26 03:24:02;;;;;;;11.70;8.93;;;;;;;;;;5068155;28;20260;-77
2024/01/26 03:26:28;;;;;;;11.70;9.27;;;;;;;;;;5085324;28;20217;-77
2024/01/26 03:28:55;;;;;;;10.17;8.43;;;;;;;;;;5079926;28;20292;-76
2024/01/26 03:31:21;;;;;;;10.87;8.97;;;;;;;;;;5045617;28;20200;-77
2024/01/26 03:33:47;;;;;;;9.77;7.77;;;;;;;;;;5078477;28;20173;-77
2024/01/26 03:36:14;;;;;;;10.10;8.07;;;;;;;;;;5080522;28;20585;-77
2024/01/26 03:38:41;;;;;;;10.87;8.63;;;;;;;;;;5083227;28;20188;-77
2024/01/26 03:41:07;;;;;;;10.13;8.03;;;;;;;;;;5081824;28;20208;-77
2024/01/26 03:43:33;;;;;;;11.07;8.50;;;;;;;;;;5085360;28;20200;-76
2024/01/26 03:45:59;;;;;;;12.27;8.37;;;;;;;;;;5077429;28;20216;-77
2024/01/26 03:48:25;;;;;;;10.53;8.57;;;;;;;;;;5074488;28;20249;-77
2024/01/26 03:50:52;;;;;;;10.13;7.57;;;;;;;;;;4996567;28;20622;-77
2024/01/26 03:53:18;;;;;;;9.73;8.10;;;;;;;;;;5064144;28;20702;-77
2024/01/26 03:55:44;;;;;;;15.77;8.27;;;;;;;;;;5081317;28;20208;-77
2024/01/26 03:58:10;;;;;;;8.87;7.43;;;;;;;;;;5083742;28;20583;-74
2024/01/26 04:00:36;;;;;;;8.00;6.60;;;;;;;;;;5081623;28;20284;-77
2024/01/26 04:03:02;;;;;;;7.67;6.70;;;;;;;;;;5053995;28;20289;-76
2024/01/26 04:05:28;;;;;;;10.87;7.70;;;;;;;;;;5048102;28;20244;-76
2024/01/26 04:07:54;;;;;;;9.10;7.90;;;;;;;;;;5075404;28;20188;-77
2024/01/26 04:10:20;;;;;;;9.67;8.57;;;;;;;;;;5064555;28;20239;-77
2024/01/26 04:12:47;;;;;;;13.57;10.93;;;;;;;;;;5089131;28;20188;-77
2024/01/26 04:15:13;;;;;;;9.83;8.27;;;;;;;;;;5083048;28;20296;-77
2024/01/26 04:17:39;;;;;;;9.33;7.77;;;;;;;;;;5061975;28;20193;-77
2024/01/26 04:20:05;;;;;;;11.00;8.37;;;;;;;;;;5083379;28;20907;-77
2024/01/26 04:22:31;;;;;;;9.73;8.27;;;;;;;;;;5086956;28;20189;-77
2024/01/26 04:24:58;;;;;;;9.93;7.73;;;;;;;;;;5079000;28;20208;-76
2024/01/26 04:27:24;;;;;;;8.77;7.77;;;;;;;;;;5060539;28;20460;-77
2024/01/26 04:29:50;;;;;;;11.27;8.53;;;;;;;;;;5076877;28;20200;-77
2024/01/26 04:32:16;;;;;;;11.00;8.17;;;;;;;;;;5040710;28;20654;-76
2024/01/26 04:34:42;;;;;;;12.03;8.50;;;;;;;;;;5081702;28;20178;-77
2024/01/26 04:37:08;;;;;;;10.60;8.40;;;;;;;;;;5084846;28;20173;-77
2024/01/26 04:39:34;;;;;;;11.73;9.50;;;;;;;;;;5072781;28;20236;-75
2024/01/26 04:42:00;;;;;;;9.60;8.17;;;;;;;;;;5069129;28;20189;-77
2024/01/26 04:44:26;;;;;;;11.77;8.47;;;;;;;;;;5068714;28;20177;-77
2024/01/26 04:46:55;;;;;;;10.80;7.90;;;;;;;;;;5078443;28;20291;-77
2024/01/26 04:49:22;;;;;;;10.33;7.87;;;;;;;;;;5054028;28;20242;-77
2024/01/26 04:51:49;;;;;;;10.20;8.40;;;;;;;;;;5075891;28;20305;-77
2024/01/26 04:54:15;;;;;;;10.53;8.23;;;;;;;;;;5064844;28;20661;-77
2024/01/26 04:56:42;;;;;;;10.93;8.37;;;;;;;;;;5075872;28;20573;-77
2024/01/26 04:59:08;;;;;;;10.20;8.40;;;;;;;;;;5080453;28;20176;-77
2024/01/26 05:01:34;;;;;;;11.70;9.30;;;;;;;;;;5070129;28;20191;-77
2024/01/26 05:04:03;;;;;;;11.73;8.40;;;;;;;;;;5075733;28;20204;-77
2024/01/26 05:06:30;;;;;;;9.70;8.27;;;;;;;;;;5056403;28;20669;-77
2024/01/26 05:08:56;;;;;;;10.37;8.90;;;;;;;;;;5077511;28;20201;-77
2024/01/26 05:11:22;;;;;;;10.53;8.50;;;;;;;;;;5075994;28;20181;-77
2024/01/26 05:13:48;;;;;;;11.00;9.00;;;;;;;;;;5080240;28;20248;-77
2024/01/26 05:16:14;;;;;;;14.93;9.03;;;;;;;;;;5087091;28;20280;-76
2024/01/26 05:18:40;;;;;;;10.13;8.17;;;;;;;;;;5087442;28;20196;-76
2024/01/26 05:21:07;;;;;;;10.47;8.03;;;;;;;;;;5077539;28;20181;-77
2024/01/26 05:23:34;;;;;;;13.37;8.13;;;;;;;;;;4972852;28;20220;-77
2024/01/26 05:26:00;;;;;;;10.17;8.10;;;;;;;;;;5056605;28;20277;-77
2024/01/26 05:28:26;;;;;;;11.57;7.67;;;;;;;;;;4942595;28;20177;-76
2024/01/26 05:30:52;;;;;;;10.53;8.37;;;;;;;;;;5076495;28;20173;-76
2024/01/26 05:33:18;;;;;;;10.27;7.47;;;;;;;;;;5073143;28;20228;-76
2024/01/26 05:35:45;;;;;;;9.43;8.40;;;;;;;;;;5072748;28;20200;-77
2024/01/26 05:38:11;;;;;;;9.97;7.70;;;;;;;;;;5081204;28;20555;-74
2024/01/26 05:40:37;;;;;;;10.00;7.80;;;;;;;;;;5072236;28;20201;-77
2024/01/26 05:43:03;;;;;;;10.73;9.40;;;;;;;;;;5075461;28;20212;-75
2024/01/26 05:45:30;;;;;;;11.77;9.30;;;;;;;;;;5054882;28;20930;-77
2024/01/26 05:47:56;;;;;;;11.10;8.73;;;;;;;;;;5072403;28;20182;-77
2024/01/26 05:50:22;;;;;;;11.73;9.30;;;;;;;;;;5074831;28;20185;-76
2024/01/26 05:52:49;;;;;;;11.60;8.73;;;;;;;;;;5073004;28;20648;-76
2024/01/26 05:55:15;;;;;;;11.00;8.77;;;;;;;;;;5032684;28;20205;-77
2024/01/26 05:57:43;;;;;;;11.00;8.57;;;;;;;;;;5080355;28;20184;-77
2024/01/26 06:00:09;;;;;;;12.73;8.57;;;;;;;;;;5078715;28;20662;-76
2024/01/26 06:02:35;;;;;;;10.40;8.57;;;;;;;;;;5070710;28;20200;-77
2024/01/26 06:05:01;;;;;;;12.87;8.60;;;;;;;;;;5077917;28;20279;-76
2024/01/26 06:07:28;;;;;;;10.87;8.63;;;;;;;;;;5075940;28;20203;-76
2024/01/26 06:09:55;;;;;;;12.37;8.83;;;;;;;;;;5080106;28;20212;-76
2024/01/26 06:12:21;;;;;;;10.17;8.67;;;;;;;;;;5071119;28;20179;-77
2024/01/26 06:14:47;;;;;;;9.40;7.77;;;;;;;;;;5065421;28;20542;-77
2024/01/26 06:17:14;;;;;;;10.27;7.73;;;;;;;;;;5074195;28;20189;-77
2024/01/26 06:19:40;;;;;;;10.20;7.73;;;;;;;;;;5068018;28;20267;-77
2024/01/26 06:22:06;;;;;;;8.77;7.30;;;;;;;;;;5067632;28;20462;-77
2024/01/26 06:24:32;;;;;;;10.87;6.70;;;;;;;;;;5068481;28;20205;-76
2024/01/26 06:26:58;;;;;;;9.23;7.73;;;;;;;;;;5077155;28;20932;-75
2024/01/26 06:29:25;;;;;;;7.47;6.60;;;;;;;;;;5073473;28;20189;-75
2024/01/26 06:31:52;;;;;;;11.80;7.53;;;;;;;;;;5037178;28;20275;-77
2024/01/26 06:34:18;;;;;;;7.60;6.50;;;;;;;;;;5076934;28;20189;-77
2024/01/26 06:36:45;;;;;;;9.43;7.10;;;;;;;;;;5085750;28;20228;-76
2024/01/26 06:39:12;;;;;;;11.50;7.20;;;;;;;;;;5080861;28;20937;-76
2024/01/26 06:41:44;;;;;;;10.07;6.27;;;;;;;;;;5005814;28;20200;-75
2024/01/26 06:44:13;;;;;;;9.13;6.50;;;;;;;;;;5077162;28;20275;-76
2024/01/26 06:46:40;;;;;;;7.40;6.67;;;;;;;;;;5058536;28;20211;-76
2024/01/26 06:49:06;;;;;;;7.50;6.10;;;;;;;;;;5074939;28;20664;-76
2024/01/26 06:51:32;;;;;;;6.87;6.00;;;;;;;;;;5087488;28;20239;-76
2024/01/26 06:54:01;;;;;;;6.87;5.80;;;;;;;;;;5082813;28;20177;-76
2024/01/26 06:56:27;;;;;;;6.77;5.43;;;;;;;;;;5072721;28;20712;-76
2024/01/26 06:58:53;;;;;;;6.43;5.17;;;;;;;;;;5077899;28;20291;-76
2024/01/26 07:01:19;;;;;;;5.97;5.33;;;;;;;;;;5061759;28;20196;-77
2024/01/26 07:03:45;;;;;;;7.87;5.90;;;;;;;;;;5060145;28;20274;-77
2024/01/26 07:06:12;;;;;;;7.83;5.60;;;;;;;;;;5086966;28;20212;-77
2024/01/26 07:08:38;;;;;;;6.97;5.60;;;;;;;;;;5069021;28;20201;-76
2024/01/26 07:11:04;;;;;;;5.93;5.10;;;;;;;;;;5073958;28;20638;-75
2024/01/26 07:13:30;;;;;;;6.20;4.97;;;;;;;;;;5081570;28;20684;-77
2024/01/26 07:15:56;;;;;;;7.43;5.00;;;;;;;;;;5055282;28;20223;-76
2024/01/26 07:18:23;;;;;;;5.83;4.53;;;;;;;;;;5064433;28;20997;-76
2024/01/26 07:20:49;;;;;;;6.27;4.77;;;;;;;;;;5060896;28;20325;-77
2024/01/26 07:23:15;;;;;;;5.30;4.80;;;;;;;;;;5061217;28;20189;-78
2024/01/26 07:25:41;;;;;;;5.67;4.77;;;;;;;;;;5039562;28;20263;-75
2024/01/26 07:28:08;;;;;;;5.90;5.07;;;;;;;;;;5028883;28;20223;-75
2024/01/26 07:30:34;;;;;;;5.30;4.50;;;;;;;;;;5027410;28;20188;-75
2024/01/26 07:33:00;;;;;;;5.57;4.30;;;;;;;;;;5068675;28;20175;-76
2024/01/26 07:35:26;;;;;;;6.57;4.40;;;;;;;;;;5067960;28;20200;-77
2024/01/26 07:37:52;;;;;;;4.77;4.27;;;;;;;;;;5072999;28;20193;-75
2024/01/26 07:40:18;;;;;;;5.77;4.80;;;;;;;;;;5021499;28;20211;-77
2024/01/26 07:42:45;;;;;;;5.87;4.80;;;;;;;;;;5064789;28;20217;-77
2024/01/26 07:45:13;;;;;;;5.77;4.43;;;;;;;;;;5013474;28;20219;-77
2024/01/26 07:47:39;;;;;;;6.20;5.03;;;;;;;;;;4907579;28;20621;-76
2024/01/26 07:50:06;;;;;;;5.37;4.63;;;;;;;;;;4901243;28;20189;-77
2024/01/26 07:52:32;;;;;;;6.63;4.60;;;;;;;;;;4891641;28;21024;-77
2024/01/26 07:54:58;;;;;;;6.70;4.33;;;;;;;;;;4953866;28;20206;-75
2024/01/26 07:57:25;;;;;;;8.40;5.40;;;;;;;;;;4918657;28;20196;-73
2024/01/26 07:59:51;;;;;;;5.53;4.60;;;;;;;;;;5011398;28;20265;-77
2024/01/26 08:02:17;;;;;;;6.13;5.23;;;;;;;;;;4901160;28;20238;-77
2024/01/26 08:04:44;;;;;;;5.20;4.37;;;;;;;;;;4906440;28;20250;-77
2024/01/26 08:07:11;;;;;;;6.13;4.70;;;;;;;;;;4914437;28;20346;-73
2024/01/26 08:09:37;;;;;;;6.43;4.77;;;;;;;;;;4957437;28;21169;-76
2024/01/26 08:12:04;;;;;;;6.17;4.60;;;;;;;;;;5024587;28;20192;-77
2024/01/26 08:14:31;;;;;;;5.30;4.80;;;;;;;;;;4896691;28;20273;-77
2024/01/26 08:16:57;;;;;;;6.43;4.83;;;;;;;;;;4879657;28;20565;-77
2024/01/26 08:19:23;;;;;;;6.83;5.53;;;;;;;;;;4918961;28;20270;-77
2024/01/26 08:21:49;;;;;;;6.80;5.40;;;;;;;;;;4971314;28;20190;-76
2024/01/26 08:24:16;;;;;;;6.00;5.33;;;;;;;;;;5010030;28;20876;-74
2024/01/26 08:26:42;;;;;;;6.70;5.53;;;;;;;;;;4955029;28;20217;-77
2024/01/26 08:29:08;;;;;;;9.40;5.33;;;;;;;;;;4919578;28;20207;-76
2024/01/26 08:31:35;;;;;;;6.80;5.20;;;;;;;;;;4918830;28;20282;-77
2024/01/26 08:34:01;;;;;;;5.70;5.10;;;;;;;;;;4964271;28;20185;-77
2024/01/26 08:36:28;;;;;;;9.53;5.37;;;;;;;;;;5067320;28;20216;-76
2024/01/26 08:38:54;;;;;;;7.07;5.00;;;;;;;;;;5068532;28;20758;-77
2024/01/26 08:41:21;;;;;;;6.77;5.03;;;;;;;;;;4957378;28;20253;-77
2024/01/26 08:43:47;;;;;;;5.87;5.27;;;;;;;;;;5011931;28;20710;-77
2024/01/26 08:46:13;;;;;;;7.20;5.30;;;;;;;;;;4922209;28;20262;-76
2024/01/26 08:48:40;;;;;;;5.50;4.90;;;;;;;;;;4960753;28;21212;-77
2024/01/26 08:51:06;;;;;;;7.23;5.73;;;;;;;;;;5029959;28;20191;-77
2024/01/26 08:53:32;;;;;;;7.70;5.57;;;;;;;;;;4919009;28;20284;-77
2024/01/26 08:55:58;;;;;;;6.60;5.23;;;;;;;;;;4929401;28;20209;-77
2024/01/26 08:58:24;;;;;;;5.67;5.07;;;;;;;;;;4915924;28;20316;-77
2024/01/26 09:00:50;;;;;;;5.90;4.80;;;;;;;;;;4964685;28;20200;-77
2024/01/26 09:03:17;;;;;;;8.87;6.37;;;;;;;;;;4983043;28;20228;-73
2024/01/26 09:05:43;;;;;;;7.97;5.97;;;;;;;;;;4945659;28;20255;-77
2024/01/26 09:08:09;;;;;;;9.10;5.53;;;;;;;;;;4908750;28;20189;-77
2024/01/26 09:10:35;;;;;;;6.57;4.33;;;;;;;;;;4907901;28;20189;-77
2024/01/26 09:13:01;;;;;;;6.30;5.13;;;;;;;;;;4971358;28;20214;-76
2024/01/26 09:15:27;;;;;;;6.97;5.30;;;;;;;;;;4903223;28;20353;-73
2024/01/26 09:17:54;;;;;;;6.10;5.10;;;;;;;;;;5020317;28;20289;-74
2024/01/26 09:20:20;;;;;;;5.40;4.50;;;;;;;;;;4901695;28;20644;-77
2024/01/26 09:22:46;;;;;;;5.20;4.70;;;;;;;;;;4906542;28;20218;-79
2024/01/26 09:25:13;;;;;;;5.73;4.70;;;;;;;;;;5000321;28;20669;-76
2024/01/26 09:27:39;;;;;;;4.63;4.20;;;;;;;;;;4940934;28;21207;-77
2024/01/26 09:30:05;;;;;;;4.90;4.17;;;;;;;;;;5019209;28;20177;-76
2024/01/26 09:32:33;;;;;;;5.17;3.80;;;;;;;;;;4910068;28;20185;-77
2024/01/26 09:35:01;;;;;;;7.53;4.27;;;;;;;;;;4916654;28;20189;-77
2024/01/26 09:37:27;;;;;;;6.53;4.20;;;;;;;;;;4906038;28;21105;-76
2024/01/26 09:39:53;;;;;;;5.30;4.23;;;;;;;;;;4965814;28;20181;-75
2024/01/26 09:42:19;;;;;;;4.83;4.20;;;;;;;;;;4995004;28;20307;-74
2024/01/26 09:44:45;;;;;;;5.50;4.10;;;;;;;;;;4957960;28;20213;-77
2024/01/26 09:47:13;;;;;;;5.37;4.30;;;;;;;;;;4913395;28;20234;-77
2024/01/26 09:49:46;;;;;;;6.17;4.13;;;;;;;;;;4918262;28;20173;-78
2024/01/26 09:52:13;;;;;;;5.57;4.30;;;;;;;;;;4910971;28;20193;-74
2024/01/26 09:54:40;;;;;;;4.77;3.70;;;;;;;;;;4962493;28;21330;-78
2024/01/26 09:57:08;;;;;;;4.20;3.60;;;;;;;;;;5025873;28;20185;-77
2024/01/26 09:59:34;;;;;;;5.43;4.10;;;;;;;;;;4902193;28;20698;-78
2024/01/26 10:02:01;;;;;;;4.53;3.97;;;;;;;;;;4942387;28;20675;-78
2024/01/26 10:04:27;;;;;;;5.03;3.83;;;;;;;;;;4927942;28;21856;-77
2024/01/26 10:06:53;;;;;;;5.83;3.60;;;;;;;;;;4982784;28;20217;-77
2024/01/26 10:09:20;;;;;;;6.10;3.70;;;;;;;;;;5004409;28;20181;-74
2024/01/26 10:11:46;;;;;;;4.43;3.50;;;;;;;;;;4981975;28;20203;-78
2024/01/26 10:14:22;;;;;;;4.30;3.83;;;;;;;;;;4948759;28;20336;-77
2024/01/26 10:17:00;;;;;;;5.30;3.63;;;;;;;;;;4950394;28;20212;-77
2024/01/26 10:19:27;;;;;;;4.83;3.60;;;;;;;;;;5028495;28;20793;-78
2024/01/26 10:21:54;;;;;;;8.10;4.10;;;;;;;;;;5050234;28;20197;-77
2024/01/26 10:24:24;;;;;;;4.50;3.67;;;;;;;;;;5002593;28;20310;-75
2024/01/26 10:26:51;;;;;;;7.30;3.53;;;;;;;;;;4997517;28;20242;-76
2024/01/26 10:29:17;;;;;;;6.63;4.20;;;;;;;;;;4950608;28;20201;-76
2024/01/26 10:31:45;;;;;;;4.43;3.30;;;;;;;;;;4950739;28;20547;-77
2024/01/26 10:34:13;;;;;;;6.40;3.67;;;;;;;;;;4964513;28;20293;-74
2024/01/26 10:36:45;;;;;;;4.40;3.50;;;;;;;;;;5024517;28;20333;-77
2024/01/26 10:39:21;;;;;;;4.70;3.30;;;;;;;;;;5035288;28;20189;-77
2024/01/26 10:41:48;;;;;;;4.40;3.57;;;;;;;;;;4975705;28;20262;-77
2024/01/26 10:44:15;;;;;;;4.47;3.50;;;;;;;;;;4954482;28;20842;-77
2024/01/26 10:46:42;;;;;;;4.57;3.83;;;;;;;;;;4942585;28;20609;-77
2024/01/26 10:49:09;;;;;;;6.63;3.87;;;;;;;;;;4977192;28;20446;-74
2024/01/26 10:51:43;;;;;;;3.80;3.40;;;;;;;;;;4961136;28;21955;-77
2024/01/26 10:54:13;;;;;;;5.60;3.70;;;;;;;;;;5019089;28;20196;-77
2024/01/26 10:56:39;;;;;;;5.50;3.63;;;;;;;;;;4938984;28;20233;-78
2024/01/26 10:59:07;;;;;;;4.73;3.53;;;;;;;;;;4944525;28;20193;-77
2024/01/26 11:01:33;;;;;;;5.10;3.73;;;;;;;;;;4944913;28;21126;-77
2024/01/26 11:04:01;;;;;;;4.80;3.67;;;;;;;;;;4987989;28;20215;-77
2024/01/26 11:06:28;;;;;;;6.20;3.73;;;;;;;;;;4941669;28;20208;-74
2024/01/26 11:09:03;;;;;;;4.23;3.60;;;;;;;;;;5030750;28;20793;-78
2024/01/26 11:11:33;;;;;;;4.90;3.83;;;;;;;;;;5025208;28;20181;-77
2024/01/26 11:14:01;;;;;;;6.57;3.50;;;;;;;;;;4950717;28;20181;-77
2024/01/26 11:16:31;;;;;;;3.90;3.30;;;;;;;;;;4950366;28;21572;-77
2024/01/26 11:18:58;;;;;;;4.60;3.40;;;;;;;;;;4985941;28;20199;-77
2024/01/26 11:21:25;;;;;;;4.97;3.50;;;;;;;;;;4978856;28;20250;-74
2024/01/26 11:23:51;;;;;;;6.63;3.93;;;;;;;;;;5011688;28;20181;-77
2024/01/26 11:26:18;;;;;;;6.00;4.10;;;;;;;;;;4951315;28;20212;-77
2024/01/26 11:28:46;;;;;;;6.77;5.80;;;;;;;;;;4933273;28;20185;-77
2024/01/26 11:31:14;;;;;;;6.13;3.80;;;;;;;;;;4937319;28;20174;-73
2024/01/26 11:33:40;;;;;;;5.50;3.60;;;;;;;;;;4989706;28;21226;-77
2024/01/26 11:36:12;;;;;;;3.90;3.50;;;;;;;;;;5026785;28;20291;-76
2024/01/26 11:38:39;;;;;;;4.17;3.33;;;;;;;;;;4954224;28;20192;-76
2024/01/26 11:41:06;;;;;;;5.43;3.70;;;;;;;;;;4964535;28;20189;-77
2024/01/26 11:43:33;;;;;;;4.90;3.43;;;;;;;;;;4960103;28;21143;-81
2024/01/26 11:45:59;;;;;;;5.30;3.23;;;;;;;;;;4968425;28;20224;-80
2024/01/26 11:48:25;;;;;;;4.23;3.23;;;;;;;;;;4950966;28;20193;-74
2024/01/26 11:50:52;;;;;;;4.73;3.60;;;;;;;;;;4983898;28;20185;-80
2024/01/26 11:53:19;;;;;;;6.53;3.40;;;;;;;;;;4971344;28;20188;-81
2024/01/26 11:55:45;;;;;;;4.83;3.20;;;;;;;;;;4901649;28;20308;-79
2024/01/26 11:58:11;;;;;;;3.60;3.23;;;;;;;;;;4931373;28;20255;-73
2024/01/26 12:00:38;;;;;;;4.20;3.40;;;;;;;;;;4957860;28;21782;-76
2024/01/26 12:03:08;;;;;;;4.77;3.00;;;;;;;;;;5017163;28;20197;-77
2024/01/26 12:05:38;;;;;;;4.57;2.87;;;;;;;;;;4956211;28;20307;-75
2024/01/26 12:08:05;;;;;;;6.23;3.30;;;;;;;;;;4980220;28;20189;-77
2024/01/26 12:10:32;;;;;;;5.20;3.50;;;;;;;;;;4949073;28;22476;-77
2024/01/26 12:12:58;;;;;;;7.20;3.77;;;;;;;;;;5017423;28;20174;-77
2024/01/26 12:15:31;;;;;;;5.07;2.97;;;;;;;;;;5010282;28;20209;-74
2024/01/26 12:18:03;;;;;;;3.53;3.10;;;;;;;;;;5024075;28;20221;-77
2024/01/26 12:20:29;;;;;;;3.63;3.00;;;;;;;;;;4947004;28;20178;-77
2024/01/26 12:22:55;;;;;;;4.43;3.10;;;;;;;;;;4947850;28;20276;-77
2024/01/26 12:25:26;;;;;;;5.10;3.17;;;;;;;;;;4975883;28;20212;-77
2024/01/26 12:27:53;;;;;;;4.77;2.93;;;;;;;;;;4990132;28;20250;-77
2024/01/26 12:30:20;;;;;;;3.93;3.33;;;;;;;;;;5006863;28;20186;-78
2024/01/26 12:32:46;;;;;;;3.27;2.93;;;;;;;;;;4948240;28;20426;-75
2024/01/26 12:35:12;;;;;;;4.07;3.10;;;;;;;;;;4902722;28;20212;-75
2024/01/26 12:37:38;;;;;;;6.07;4.70;;;;;;;;;;4921156;28;20230;-77
2024/01/26 12:40:06;;;;;;;3.93;3.20;;;;;;;;;;4967545;28;20193;-76
2024/01/26 12:42:32;;;;;;;3.47;3.00;;;;;;;;;;4926690;28;20227;-77
2024/01/26 12:44:59;;;;;;;3.30;2.70;;;;;;;;;;5013618;28;20514;-77
2024/01/26 12:47:25;;;;;;;4.07;2.80;;;;;;;;;;4903592;28;20216;-76
2024/01/26 12:49:51;;;;;;;3.77;3.03;;;;;;;;;;4916524;28;20189;-76
2024/01/26 12:52:21;;;;;;;5.17;2.70;;;;;;;;;;4920166;28;20189;-76
2024/01/26 12:54:52;;;;;;;4.43;2.80;;;;;;;;;;4972128;28;21957;-77
2024/01/26 12:57:18;;;;;;;3.90;3.20;;;;;;;;;;5007101;28;20209;-73
2024/01/26 12:59:44;;;;;;;4.77;2.87;;;;;;;;;;4933155;28;20187;-77
2024/01/26 13:02:11;;;;;;;4.40;3.60;;;;;;;;;;4915538;28;20185;-77
2024/01/26 13:04:38;;;;;;;5.07;3.57;;;;;;;;;;4979881;28;20189;-76
2024/01/26 13:07:04;;;;;;;6.43;3.90;;;;;;;;;;4969542;28;20205;-77
2024/01/26 13:09:30;;;;;;;4.23;3.60;;;;;;;;;;4987878;28;20181;-77
2024/01/26 13:11:59;;;;;;;3.90;2.80;;;;;;;;;;5027760;28;20187;-77
2024/01/26 13:14:25;;;;;;;3.17;2.70;;;;;;;;;;5004136;28;20181;-76
2024/01/26 13:16:51;;;;;;;3.97;2.60;;;;;;;;;;4970960;28;20423;-77
2024/01/26 13:19:17;;;;;;;4.27;2.33;;;;;;;;;;4975783;28;20196;-75
2024/01/26 13:21:48;;;;;;;3.83;2.60;;;;;;;;;;4996323;28;21395;-77
2024/01/26 13:24:14;;;;;;;3.07;2.70;;;;;;;;;;5026773;28;20239;-77
2024/01/26 13:26:42;;;;;;;3.27;2.63;;;;;;;;;;4975632;28;20287;-77
2024/01/26 13:29:08;;;;;;;3.00;2.70;;;;;;;;;;4936055;28;20236;-77
2024/01/26 13:31:35;;;;;;;4.17;3.27;;;;;;;;;;4965935;28;20204;-77
2024/01/26 13:34:01;;;;;;;4.90;3.40;;;;;;;;;;5003132;28;20174;-76
2024/01/26 13:36:29;;;;;;;3.60;3.00;;;;;;;;;;4983453;28;20683;-74
2024/01/26 13:38:58;;;;;;;4.10;3.17;;;;;;;;;;5027765;28;20600;-78
2024/01/26 13:41:25;;;;;;;3.50;2.60;;;;;;;;;;4960030;28;20185;-77
2024/01/26 13:43:51;;;;;;;3.60;2.93;;;;;;;;;;4960376;28;20184;-77
2024/01/26 13:46:18;;;;;;;3.23;2.50;;;;;;;;;;5027302;28;20260;-77
2024/01/26 13:48:44;;;;;;;3.23;2.43;;;;;;;;;;5002640;28;20611;-77
2024/01/26 13:51:10;;;;;;;3.37;2.00;;;;;;;;;;5037280;28;20328;-77
2024/01/26 13:53:36;;;;;;;2.50;1.77;;;;;;;;;;4945816;28;20217;-77
2024/01/26 13:56:02;;;;;;;2.73;1.70;;;;;;;;;;4950317;28;20216;-77
2024/01/26 13:58:28;;;;;;;1.57;1.43;;;;;;;;;;4991757;28;20181;-78
2024/01/26 14:00:54;;;;;;;1.63;1.40;;;;;;;;;;4995072;28;20192;-77
2024/01/26 14:03:21;;;;;;;3.27;1.57;;;;;;;;;;4976548;28;20254;-73
2024/01/26 14:05:47;;;;;;;1.83;1.60;;;;;;;;;;4953499;28;20213;-77
2024/01/26 14:08:14;;;;;;;2.07;1.60;;;;;;;;;;5015313;28;20173;-77
2024/01/26 14:10:40;;;;;;;2.43;1.80;;;;;;;;;;4993247;28;20232;-78
2024/01/26 14:13:09;;;;;;;2.47;1.90;;;;;;;;;;4984272;28;20180;-74
2024/01/26 14:15:36;;;;;;;3.10;1.90;;;;;;;;;;4985566;28;20295;-77
2024/01/26 14:18:03;;;;;;;2.43;1.73;;;;;;;;;;5024182;28;20626;-77
2024/01/26 14:20:33;;;;;;;2.03;1.90;;;;;;;;;;4950371;28;20672;-77
2024/01/26 14:22:59;;;;;;;2.07;1.87;;;;;;;;;;4975353;28;20192;-76
2024/01/26 14:25:26;;;;;;;2.13;1.93;;;;;;;;;;4958413;28;20294;-77
2024/01/26 14:27:52;;;;;;;2.87;2.00;;;;;;;;;;4976574;28;20248;-77
2024/01/26 14:30:20;;;;;;;1.77;1.60;;;;;;;;;;5017466;28;20670;-73
2024/01/26 14:32:47;;;;;;;2.40;2.00;;;;;;;;;;4970752;28;20189;-77